• Join FlightAware (Why Join?)
  • Login
  • US Flag 
03:42PM EDT


 

Airport Tracker/Info


-or-


 

Live Flight TrackerFlight Track Log ✈ CTL312 ✈ 22-Jul-2013 ✈ KBKL - KPTK

Flight Track Log - Related Links

Times and Time Zones

All times are in EDT time to prevent confusion due to time zone crossing. See the CTL312 flight status page for this flight to view local times or setup timezone preferences in your user account.

Time Position Orientation Groundspeed Altitude Reporting Facility
EDT Latitude Longitude Course Direction KTS MPH feet Rate Location/Type
09:55PM 41.5708 -81.7239 312° West 154 177 2,100  Level Cleveland Center
09:56PM 41.5847 -81.7714 291° West 155 178 2,800 720 Climbing Cleveland Center
09:57PM 41.6031 -81.8217 296° West 154 177 3,500 660 Climbing Cleveland Center
09:58PM 41.6211 -81.8775 293° West 155 178 4,300 660 Climbing Cleveland Center
10:00PM 41.6414 -81.9419 293° West 158 182 5,000 660 Climbing Cleveland Center
10:01PM 41.6933 -81.9428 312° West  Level Estimated
10:01PM 41.6594 -81.9922 296° West 153 176 5,800  Level Cleveland Center
10:02PM 41.6797 -82.0456 297° West 156 180 6,000 60 Climbing Cleveland Center
10:02PM 41.6978 -82.0961 296° West 182 209 6,000  Level Cleveland Center
10:03PM 41.7156 -82.1575 291° West 179 206 6,000  Level Cleveland Center
10:04PM 41.7378 -82.2167 297° West 179 206 6,000  Level Cleveland Center
10:05PM 41.7536 -82.2697 292° West 179 206 6,000  Level Cleveland Center
10:06PM 41.7736 -82.3344 293° West 175 201 6,000  Level Cleveland Center
10:07PM 41.7914 -82.3961 291° West 176 203 6,000  Level Cleveland Center
10:09PM 41.8111 -82.4664 291° West 174 200 6,000  Level Cleveland Center
10:09PM 41.8186 -82.5083 284° West 173 199 6,000  Level Cleveland Center
10:10PM 41.8322 -82.5703 286° West 172 198 6,000  Level Cleveland Center
10:11PM 41.8458 -82.6319 287° West 172 198 6,000  Level Cleveland Center
10:12PM 41.8828 -82.6581 332° Northwest 174 200 6,000  Level Cleveland Center
10:13PM 41.9261 -82.6819 338° Northwest 170 196 6,000  Level Cleveland Center
10:14PM 41.9758 -82.7031 342° North 170 196 6,000  Level Cleveland Center
10:15PM 42.0211 -82.7269 339° North 170 196 6,000  Level Cleveland Center
10:16PM 42.0689 -82.7481 342° North 171 197 6,000 -240 Level Cleveland Center
10:17PM 42.1183 -82.7694 342° North 182 209 5,500 -600 Descending Cleveland Center
10:18PM 42.1681 -82.7936 340° North 191 220 4,900 -660 Descending Cleveland Center
10:19PM 42.2197 -82.8178 341° North 192 221 4,200 -420 Descending Cleveland Center
10:20PM 42.2608 -82.8417 337° Northwest 181 208 4,200 -120 Level Cleveland Center
10:21PM 42.2956 -82.8822 319° Northwest 166 191 4,000 -120 Descending Cleveland Center
10:22PM 42.3406 -82.9261 324° Northwest 168 193 4,000  Level Cleveland Center
10:23PM 42.3731 -82.9581 324° Northwest 167 192 4,000  Level Cleveland Center
10:24PM 42.4097 -82.9989 321° Northwest 168 193 4,100  Climbing Cleveland Center
10:25PM 42.4528 -83.0400 325° Northwest 169 194 4,000 -300 Descending Cleveland Center
10:26PM 42.4808 -83.0833 311° West 176 203 3,600 -480 Descending Cleveland Center
10:27PM 42.5131 -83.1381 309° West 177 204 3,100 -300 Descending Cleveland Center
10:28PM 42.5411 -83.1900 306° West 164 189 3,000 -180 Descending Cleveland Center
10:29PM 42.5694 -83.2306 313° West 177 204 2,800 -360 Descending Cleveland Center
10:30PM 42.6036 -83.2856 310° West 177 204 2,400 -420 Descending Cleveland Center
10:31PM 42.6336 -83.3378 308° West 171 197 2,000 -360 Descending Cleveland Center
10:32PM 42.6575 -83.3811 307° West 144 166 1,700 -360 Descending Cleveland Center